East Poultney, Vermont
Current Conditions -  °F | °C
As of 12:35 AM on Thursday 27 Nov 2014 (Local Time) from KRUT Reporting Station
Overcast Overcast  
Wind Chill: 19°   Ceiling: 600
Heat Index: 27°   Visibility: 3mi
Dew Point: 25°   Wind: 7mph
Humidity: 93%   Direction: 330°NNW
Pressure: 29.85"   Gusts: NA
Location:  43.53°N, 73.2°W
Report Text: KRUT 270535Z 33006KT 3SM OVC006 M03/M04 A2985 RMK AO1
Loading
Personal Weather Stations






























Interactive Weather Map New forecast layout! Learn more

10-Day Weather Forecast

Advertisements
Track Severe Weather on mobile